Time;durP1;ratioP1;P1;durP2;ratioP2;P2;SDS_P1;SDS_P2;PMS_P1;PMS_P2;Temp;Humidity;BMP_temperature;BMP_pressure;BME280_temperature;BME280_humidity;BME280_pressure;Samples;Min_cycle;Max_cycle;Signal;HPM_P1;HPM_P2
2024/01/26 00:01:38;;;;;;;55.67;49.72;;;15.10;99.90;;;;;;5065150;28;20041;-65
2024/01/26 00:04:04;;;;;;;54.95;49.30;;;15.90;99.90;;;;;;5064779;28;20107;-65
2024/01/26 00:06:29;;;;;;;53.58;48.00;;;14.60;99.90;;;;;;5065281;28;20060;-66
2024/01/26 00:08:55;;;;;;;52.65;47.22;;;15.10;99.90;;;;;;5065029;28;20041;-66
2024/01/26 00:11:20;;;;;;;54.85;49.55;;;14.00;99.90;;;;;;5065484;28;20154;-67
2024/01/26 00:13:46;;;;;;;53.58;48.38;;;14.10;99.90;;;;;;5064683;28;20097;-65
2024/01/26 00:16:12;;;;;;;54.65;49.05;;;14.10;99.90;;;;;;5065039;28;20125;-65
2024/01/26 00:18:40;;;;;;;54.28;48.88;;;13.90;99.90;;;;;;5064881;28;20040;-65
2024/01/26 00:21:06;;;;;;;55.42;49.50;;;14.20;99.90;;;;;;5065259;28;20451;-66
2024/01/26 00:23:32;;;;;;;54.30;48.88;;;14.50;99.90;;;;;;5065265;28;20517;-65
2024/01/26 00:25:58;;;;;;;54.88;49.17;;;14.30;99.90;;;;;;5064595;28;20037;-66
2024/01/26 00:28:23;;;;;;;49.78;44.75;;;14.40;99.90;;;;;;5046532;28;20242;-65
2024/01/26 00:30:49;;;;;;;51.65;46.33;;;14.90;99.90;;;;;;5064480;28;20502;-66
2024/01/26 00:33:14;;;;;;;51.83;46.75;;;15.10;99.90;;;;;;5064258;28;20037;-66
2024/01/26 00:35:40;;;;;;;40.78;36.75;;;14.30;99.90;;;;;;5064485;28;20049;-65
2024/01/26 00:38:05;;;;;;;51.67;46.45;;;14.20;99.90;;;;;;5064138;28;20486;-65
2024/01/26 00:40:31;;;;;;;53.38;48.22;;;14.00;99.90;;;;;;5064390;28;20044;-65
2024/01/26 00:42:57;;;;;;;53.60;48.28;;;14.30;99.90;;;;;;5064670;28;20041;-65
2024/01/26 00:45:23;;;;;;;53.90;48.10;;;15.00;99.90;;;;;;5062778;28;20125;-66
2024/01/26 00:47:48;;;;;;;56.00;50.42;;;14.60;99.90;;;;;;5063610;28;20044;-66
2024/01/26 00:50:14;;;;;;;56.40;50.80;;;14.70;99.90;;;;;;5068294;28;20134;-66
2024/01/26 00:52:40;;;;;;;54.38;49.03;;;14.10;99.90;;;;;;5068138;28;20071;-65
2024/01/26 00:55:05;;;;;;;55.88;49.95;;;13.70;99.90;;;;;;5067469;28;20036;-65
2024/01/26 00:57:31;;;;;;;56.88;51.03;;;14.30;99.90;;;;;;5068163;28;20095;-65
2024/01/26 00:59:59;;;;;;;59.75;53.58;;;14.00;99.90;;;;;;5068181;28;20044;-65
2024/01/26 01:02:25;;;;;;;56.33;50.47;;;14.00;99.90;;;;;;5068198;28;20055;-65
2024/01/26 01:04:50;;;;;;;56.83;50.80;;;15.00;99.90;;;;;;5068376;28;20351;-66
2024/01/26 01:07:16;;;;;;;58.30;52.45;;;14.80;99.90;;;;;;5068027;28;20114;-66
2024/01/26 01:09:41;;;;;;;58.75;53.05;;;14.00;99.90;;;;;;5068185;28;20129;-66
2024/01/26 01:12:07;;;;;;;59.58;53.70;;;14.60;99.90;;;;;;5067395;28;20040;-66
2024/01/26 01:14:33;;;;;;;57.53;51.80;;;14.70;99.90;;;;;;5051924;28;20044;-66
2024/01/26 01:16:58;;;;;;;56.33;50.22;;;14.80;99.90;;;;;;5067724;28;20052;-66
2024/01/26 01:19:24;;;;;;;52.63;47.63;;;15.20;99.90;;;;;;5049401;28;20036;-66
2024/01/26 01:21:50;;;;;;;53.25;48.25;;;14.60;99.90;;;;;;5066270;28;20439;-66
2024/01/26 01:24:15;;;;;;;51.67;46.42;;;14.00;99.90;;;;;;5066534;28;20044;-66
2024/01/26 01:26:41;;;;;;;53.20;48.10;;;14.90;99.90;;;;;;5067574;28;20493;-66
2024/01/26 01:29:06;;;;;;;52.72;47.55;;;15.10;99.90;;;;;;5067081;28;20128;-67
2024/01/26 01:31:33;;;;;;;53.38;48.17;;;13.80;99.90;;;;;;5067831;28;20044;-66
2024/01/26 01:33:58;;;;;;;60.13;54.22;;;13.90;99.90;;;;;;5067204;28;20040;-67
2024/01/26 01:36:24;;;;;;;53.00;47.67;;;14.10;99.90;;;;;;5067135;28;20634;-66
2024/01/26 01:38:49;;;;;;;52.72;47.20;;;14.10;99.90;;;;;;5067323;28;20044;-66
2024/01/26 01:41:15;;;;;;;51.53;46.42;;;15.00;99.90;;;;;;5067587;28;20097;-66
2024/01/26 01:43:41;;;;;;;52.53;47.08;;;14.20;99.90;;;;;;5066639;28;20032;-66
2024/01/26 01:46:07;;;;;;;53.30;47.92;;;14.80;99.90;;;;;;5067037;28;20044;-66
2024/01/26 01:48:32;;;;;;;55.05;49.35;;;14.20;99.90;;;;;;5066948;28;20083;-67
2024/01/26 01:50:58;;;;;;;61.33;55.13;;;14.40;99.90;;;;;;5067316;28;20182;-66
2024/01/26 01:53:24;;;;;;;59.60;53.45;;;15.10;99.90;;;;;;5067106;28;20048;-66
2024/01/26 01:55:51;;;;;;;65.00;54.78;;;15.20;99.90;;;;;;5067071;28;20443;-66
2024/01/26 01:58:18;;;;;;;58.58;51.75;;;15.30;99.90;;;;;;5058363;28;20041;-66
2024/01/26 02:00:43;;;;;;;58.55;52.28;;;14.90;99.90;;;;;;5067300;28;20577;-67
2024/01/26 02:03:09;;;;;;;57.17;50.88;;;14.60;99.90;;;;;;5067040;28;20125;-67
2024/01/26 02:05:35;;;;;;;55.63;49.58;;;14.70;99.90;;;;;;5032801;28;20511;-67
2024/01/26 02:08:01;;;;;;;56.92;49.53;;;14.60;99.90;;;;;;5049049;28;20137;-67
2024/01/26 02:10:26;;;;;;;53.42;47.65;;;16.30;99.90;;;;;;5066884;28;20036;-67
2024/01/26 02:12:52;;;;;;;54.00;47.83;;;14.50;99.90;;;;;;5066080;28;20051;-66
2024/01/26 02:15:17;;;;;;;53.58;47.78;;;16.20;99.90;;;;;;5066760;28;20117;-67
2024/01/26 02:17:44;;;;;;;48.80;43.78;;;15.10;99.90;;;;;;5066600;28;20620;-67
2024/01/26 02:20:10;;;;;;;53.42;47.55;;;14.60;99.90;;;;;;5064892;28;20044;-67
2024/01/26 02:22:36;;;;;;;51.22;45.88;;;14.80;99.90;;;;;;5066477;28;20401;-67
2024/01/26 02:25:02;;;;;;;49.40;44.15;;;15.50;99.90;;;;;;5048633;28;20386;-67
2024/01/26 02:27:28;;;;;;;50.50;45.00;;;15.30;99.90;;;;;;5066103;28;20041;-67
2024/01/26 02:29:53;;;;;;;50.20;45.13;;;14.80;99.90;;;;;;5048035;28;20596;-67
2024/01/26 02:32:19;;;;;;;51.50;45.03;;;15.70;99.90;;;;;;5048310;28;20048;-67
2024/01/26 02:34:45;;;;;;;49.72;44.55;;;15.20;99.90;;;;;;5066210;28;20040;-67
2024/01/26 02:37:11;;;;;;;52.72;47.10;;;15.50;99.90;;;;;;5065774;28;20049;-67
2024/01/26 02:39:37;;;;;;;52.92;47.42;;;16.60;99.90;;;;;;5047941;28;20043;-67
2024/01/26 02:42:03;;;;;;;54.13;48.65;;;14.60;99.90;;;;;;5065938;28;20045;-67
2024/01/26 02:44:29;;;;;;;58.95;50.17;;;14.50;99.90;;;;;;5065803;28;20040;-67
2024/01/26 02:46:54;;;;;;;59.10;49.67;;;15.30;99.90;;;;;;5066180;28;20055;-67
2024/01/26 02:49:20;;;;;;;59.15;52.88;;;15.50;99.90;;;;;;5066531;28;20048;-67
2024/01/26 02:51:46;;;;;;;56.75;50.67;;;15.50;99.90;;;;;;5066626;28;20040;-67
2024/01/26 02:54:11;;;;;;;56.17;50.50;;;14.90;99.90;;;;;;5065873;28;20498;-67
2024/01/26 02:56:37;;;;;;;60.88;54.40;;;15.60;99.90;;;;;;5065836;28;20252;-67
2024/01/26 02:59:02;;;;;;;58.95;52.83;;;14.80;99.90;;;;;;5030388;28;20044;-67
2024/01/26 03:01:28;;;;;;;57.97;51.85;;;14.50;99.90;;;;;;5065576;28;20036;-67
2024/01/26 03:03:54;;;;;;;61.85;54.03;;;15.20;99.90;;;;;;5065721;28;20044;-67
2024/01/26 03:06:19;;;;;;;60.30;53.88;;;14.60;99.90;;;;;;5065324;28;20521;-67
2024/01/26 03:08:45;;;;;;;62.85;56.53;;;14.90;99.90;;;;;;5048006;28;20506;-67
2024/01/26 03:11:15;;;;;;;63.67;56.85;;;15.20;99.90;;;;;;5065633;28;20132;-67
2024/01/26 03:13:40;;;;;;;63.08;56.47;;;15.90;99.90;;;;;;5065636;28;20049;-67
2024/01/26 03:16:06;;;;;;;62.58;55.85;;;15.90;99.90;;;;;;5047745;28;20048;-67
2024/01/26 03:18:31;;;;;;;62.10;55.55;;;15.60;99.90;;;;;;5064883;28;20039;-67
2024/01/26 03:20:57;;;;;;;63.17;56.72;;;14.80;99.90;;;;;;5064681;28;20044;-67
2024/01/26 03:23:23;;;;;;;65.90;58.83;;;16.00;99.90;;;;;;5047378;28;20404;-67
2024/01/26 03:25:48;;;;;;;68.13;57.38;;;15.40;99.90;;;;;;5066285;28;20036;-67
2024/01/26 03:28:14;;;;;;;59.40;53.13;;;15.20;99.90;;;;;;5047231;28;20040;-67
2024/01/26 03:30:40;;;;;;;69.80;59.08;;;15.30;99.90;;;;;;5065676;28;20086;-67
2024/01/26 03:33:06;;;;;;;61.75;54.67;;;14.70;99.90;;;;;;5047549;28;20040;-67
2024/01/26 03:35:32;;;;;;;60.60;54.35;;;16.20;99.90;;;;;;5065234;28;20041;-67
2024/01/26 03:37:58;;;;;;;59.35;53.08;;;16.00;99.90;;;;;;5064829;28;20052;-67
2024/01/26 03:40:24;;;;;;;61.67;55.03;;;15.60;99.90;;;;;;5047175;28;20067;-67
2024/01/26 03:42:53;;;;;;;59.50;52.92;;;14.90;99.90;;;;;;5065186;28;20123;-67
2024/01/26 03:45:19;;;;;;;58.40;52.35;;;15.70;99.90;;;;;;5065144;28;20040;-68
2024/01/26 03:47:44;;;;;;;64.78;57.20;;;14.70;99.90;;;;;;5065289;28;20040;-67
2024/01/26 03:50:10;;;;;;;64.30;56.45;;;15.90;99.90;;;;;;5065201;28;20155;-67
2024/01/26 03:52:36;;;;;;;68.47;59.83;;;15.00;99.90;;;;;;5065286;28;20521;-67
2024/01/26 03:55:02;;;;;;;66.10;59.00;;;14.70;99.90;;;;;;5065186;28;20098;-67
2024/01/26 03:57:27;;;;;;;64.68;57.17;;;15.80;99.90;;;;;;5064973;28;20033;-67
2024/01/26 03:59:53;;;;;;;63.40;56.90;;;16.10;99.90;;;;;;5064964;28;20113;-67
2024/01/26 04:02:19;;;;;;;64.68;57.92;;;16.70;99.90;;;;;;5064765;28;20555;-67
2024/01/26 04:04:45;;;;;;;61.72;55.40;;;15.70;99.90;;;;;;5059987;28;20036;-67
2024/01/26 04:07:11;;;;;;;65.97;59.33;;;15.50;99.90;;;;;;5065230;28;20040;-67
2024/01/26 04:09:37;;;;;;;60.67;54.47;;;15.00;99.90;;;;;;5064585;28;20052;-67
2024/01/26 04:12:04;;;;;;;59.05;52.85;;;15.00;99.90;;;;;;5047299;28;20084;-67
2024/01/26 04:14:29;;;;;;;64.22;57.22;;;15.30;99.90;;;;;;5046441;28;20047;-67
2024/01/26 04:16:55;;;;;;;59.75;53.65;;;15.50;99.90;;;;;;5064338;28;20045;-67
2024/01/26 04:19:20;;;;;;;63.13;56.72;;;16.10;99.90;;;;;;5064916;28;20045;-67
2024/01/26 04:21:49;;;;;;;61.92;55.70;;;16.10;99.90;;;;;;5069288;28;20079;-67
2024/01/26 04:24:15;;;;;;;62.30;56.00;;;15.50;99.90;;;;;;5069022;28;20082;-68
2024/01/26 04:26:40;;;;;;;59.72;54.03;;;15.60;99.90;;;;;;5068236;28;20044;-67
2024/01/26 04:29:07;;;;;;;60.72;54.78;;;15.70;99.90;;;;;;5068191;28;20119;-67
2024/01/26 04:31:32;;;;;;;62.55;56.40;;;15.20;99.90;;;;;;5068230;28;20048;-67
2024/01/26 04:33:58;;;;;;;60.92;54.92;;;15.40;99.90;;;;;;5064296;28;20391;-67
2024/01/26 04:36:23;;;;;;;59.95;53.90;;;16.20;99.90;;;;;;5068460;28;20063;-66
2024/01/26 04:38:49;;;;;;;60.05;53.92;;;15.50;99.90;;;;;;5068419;28;20102;-66
2024/01/26 04:41:15;;;;;;;61.33;55.33;;;14.70;99.90;;;;;;5068926;28;20490;-66
2024/01/26 04:43:40;;;;;;;62.33;56.20;;;16.10;99.90;;;;;;5068074;28;20044;-66
2024/01/26 04:46:06;;;;;;;60.00;54.05;;;14.80;99.90;;;;;;5067961;28;20045;-66
2024/01/26 04:48:31;;;;;;;64.15;58.13;;;15.90;99.90;;;;;;5067968;28;20044;-66
2024/01/26 04:50:57;;;;;;;63.70;57.35;;;15.10;99.90;;;;;;5066984;28;20052;-66
2024/01/26 04:53:22;;;;;;;59.92;54.08;;;15.80;99.90;;;;;;5068068;28;20123;-66
2024/01/26 04:55:48;;;;;;;60.08;54.08;;;15.40;99.90;;;;;;5068675;28;20051;-66
2024/01/26 04:58:13;;;;;;;61.47;55.55;;;15.10;99.90;;;;;;5068230;28;20055;-66
2024/01/26 05:00:39;;;;;;;66.22;59.58;;;15.20;99.90;;;;;;5067805;28;20059;-66
2024/01/26 05:03:05;;;;;;;65.50;58.92;;;15.20;99.90;;;;;;5067561;28;20044;-66
2024/01/26 05:05:30;;;;;;;62.90;56.78;;;15.90;99.90;;;;;;5067641;28;20079;-66
2024/01/26 05:07:56;;;;;;;64.05;57.90;;;15.80;99.90;;;;;;5067833;28;20047;-66
2024/01/26 05:10:21;;;;;;;61.30;55.25;;;16.30;99.90;;;;;;5068024;28;20033;-66
2024/01/26 05:12:47;;;;;;;64.35;58.28;;;16.60;99.90;;;;;;5067250;28;20156;-66
2024/01/26 05:15:13;;;;;;;61.67;55.67;;;15.00;99.90;;;;;;5067266;28;20045;-66
2024/01/26 05:17:38;;;;;;;62.28;56.03;;;16.10;99.90;;;;;;5067919;28;20045;-66
2024/01/26 05:20:05;;;;;;;67.85;61.17;;;16.50;99.90;;;;;;5067982;28;20055;-66
2024/01/26 05:22:31;;;;;;;61.85;55.75;;;15.10;99.90;;;;;;5067843;28;20098;-66
2024/01/26 05:24:57;;;;;;;60.63;54.60;;;15.40;99.90;;;;;;5068514;28;20044;-66
2024/01/26 05:27:22;;;;;;;63.17;56.88;;;15.10;99.90;;;;;;5068624;28;20085;-65
2024/01/26 05:29:48;;;;;;;62.30;56.00;;;15.30;99.90;;;;;;5067390;28;20087;-66
2024/01/26 05:32:14;;;;;;;65.68;59.20;;;15.90;99.90;;;;;;5066725;28;20055;-67
2024/01/26 05:34:40;;;;;;;67.00;60.47;;;16.20;99.90;;;;;;5067821;28;20051;-67
2024/01/26 05:37:06;;;;;;;70.15;63.10;;;15.40;99.90;;;;;;5049649;28;20593;-66
2024/01/26 05:39:32;;;;;;;65.78;59.63;;;15.50;99.90;;;;;;5067980;28;20080;-67
2024/01/26 05:41:58;;;;;;;73.05;65.57;;;15.60;99.90;;;;;;5067474;28;20577;-67
2024/01/26 05:44:23;;;;;;;66.80;60.33;;;16.70;99.90;;;;;;5066951;28;20058;-66
2024/01/26 05:46:49;;;;;;;63.53;57.47;;;15.50;99.90;;;;;;5063413;28;20043;-66
2024/01/26 05:49:15;;;;;;;69.78;62.65;;;15.20;99.90;;;;;;5067029;28;20131;-66
2024/01/26 05:51:40;;;;;;;69.38;62.90;;;17.50;99.90;;;;;;5066328;28;20441;-66
2024/01/26 05:54:06;;;;;;;68.88;61.88;;;15.10;99.90;;;;;;5067250;28;20521;-67
2024/01/26 05:56:32;;;;;;;65.10;58.58;;;15.40;99.90;;;;;;5048659;28;20040;-68
2024/01/26 05:58:57;;;;;;;65.35;58.97;;;16.50;99.90;;;;;;5067221;28;20040;-68
2024/01/26 06:01:23;;;;;;;69.45;62.78;;;16.50;99.90;;;;;;5066199;28;20665;-67
2024/01/26 06:03:48;;;;;;;70.55;63.33;;;15.90;99.90;;;;;;5054762;28;20044;-68
2024/01/26 06:06:15;;;;;;;63.85;57.28;;;15.20;99.90;;;;;;5067470;28;20040;-67
2024/01/26 06:08:41;;;;;;;66.60;59.92;;;17.20;99.90;;;;;;5067020;28;20040;-68
2024/01/26 06:11:08;;;;;;;62.03;55.83;;;16.20;99.90;;;;;;5067250;28;20040;-67
2024/01/26 06:13:33;;;;;;;59.95;53.88;;;17.50;99.90;;;;;;5048975;28;20052;-67
2024/01/26 06:15:59;;;;;;;60.85;54.95;;;15.80;99.90;;;;;;5066981;28;20055;-68
2024/01/26 06:18:25;;;;;;;64.28;57.70;;;15.60;99.90;;;;;;5049822;28;20059;-69
2024/01/26 06:20:50;;;;;;;61.53;55.58;;;15.40;99.90;;;;;;5049368;28;20567;-68
2024/01/26 06:23:16;;;;;;;62.80;56.72;;;16.20;99.90;;;;;;5048738;28;20048;-68
2024/01/26 06:25:41;;;;;;;61.50;55.38;;;15.70;99.90;;;;;;5048751;28;20048;-68
2024/01/26 06:28:07;;;;;;;62.58;56.42;;;15.80;99.90;;;;;;5066558;28;20044;-69
2024/01/26 06:30:33;;;;;;;63.67;57.28;;;16.50;99.90;;;;;;5058065;28;20044;-69
2024/01/26 06:32:58;;;;;;;62.72;56.63;;;15.40;99.90;;;;;;5048093;28;20106;-68
2024/01/26 06:35:24;;;;;;;62.17;55.85;;;16.10;99.90;;;;;;5082066;28;20400;-68
2024/01/26 06:37:49;;;;;;;59.50;53.67;;;15.80;99.90;;;;;;5048633;28;20067;-69
2024/01/26 06:40:15;;;;;;;54.33;48.80;;;16.70;99.90;;;;;;5067000;28;20459;-69
2024/01/26 06:42:41;;;;;;;57.03;51.30;;;15.80;99.90;;;;;;5048219;28;20032;-68
2024/01/26 06:45:11;;;;;;;48.95;44.10;;;15.00;99.90;;;;;;5056877;28;20159;-68
2024/01/26 06:47:37;;;;;;;47.85;42.95;;;16.80;99.90;;;;;;5065180;28;20055;-68
2024/01/26 06:50:04;;;;;;;52.50;47.30;;;15.40;99.90;;;;;;5050662;28;20033;-68
2024/01/26 06:52:33;;;;;;;45.97;41.20;;;16.40;99.90;;;;;;5074010;28;20048;-68
2024/01/26 06:54:59;;;;;;;57.85;52.13;;;14.80;99.90;;;;;;5040159;28;20470;-68
2024/01/26 06:57:24;;;;;;;51.13;45.80;;;16.20;99.90;;;;;;5038339;28;20593;-69
2024/01/26 06:59:50;;;;;;;53.78;45.72;;;15.30;99.90;;;;;;5041338;28;20043;-69
2024/01/26 07:02:16;;;;;;;52.45;47.03;;;15.40;99.90;;;;;;5054744;28;20041;-68
2024/01/26 07:04:43;;;;;;;54.88;49.13;;;14.40;99.90;;;;;;5041175;28;20163;-68
2024/01/26 07:07:08;;;;;;;59.13;52.88;;;14.90;99.90;;;;;;5057183;28;20178;-68
2024/01/26 07:09:34;;;;;;;65.80;58.58;;;15.60;99.90;;;;;;5055414;28;20132;-68
2024/01/26 07:12:00;;;;;;;61.22;51.17;;;14.50;99.90;;;;;;5037274;28;20514;-68
2024/01/26 07:14:25;;;;;;;63.92;54.25;;;16.70;99.90;;;;;;5037231;28;20048;-67
2024/01/26 07:16:51;;;;;;;62.75;55.92;;;14.40;99.90;;;;;;5066197;28;20044;-67
2024/01/26 07:19:16;;;;;;;66.38;59.33;;;16.30;99.90;;;;;;5062396;28;20127;-67
2024/01/26 07:21:42;;;;;;;68.63;54.65;;;15.60;99.90;;;;;;5040687;28;20673;-67
2024/01/26 07:24:08;;;;;;;75.57;58.40;;;15.90;99.90;;;;;;5064827;28;20103;-67
2024/01/26 07:26:34;;;;;;;71.65;54.92;;;14.50;99.90;;;;;;5063266;28;20044;-68
2024/01/26 07:29:00;;;;;;;75.43;60.03;;;14.70;99.90;;;;;;5044941;28;20505;-67
2024/01/26 07:31:25;;;;;;;75.80;57.33;;;16.40;99.90;;;;;;5063721;28;20571;-67
2024/01/26 07:33:51;;;;;;;78.43;56.97;;;15.50;99.90;;;;;;5064090;28;20506;-67
2024/01/26 07:36:17;;;;;;;80.72;56.45;;;14.40;99.90;;;;;;5063521;28;20872;-66
2024/01/26 07:38:42;;;;;;;83.15;62.50;;;15.90;99.90;;;;;;5063565;28;20150;-68
2024/01/26 07:41:08;;;;;;;79.82;56.55;;;16.20;99.90;;;;;;5063392;28;20072;-67
2024/01/26 07:43:34;;;;;;;82.40;58.17;;;14.60;99.90;;;;;;5043221;28;20044;-67
2024/01/26 07:45:59;;;;;;;86.15;63.22;;;14.10;99.90;;;;;;5061887;28;20066;-66
2024/01/26 07:48:25;;;;;;;83.82;56.95;;;14.50;99.90;;;;;;5062946;28;20040;-66
2024/01/26 07:50:51;;;;;;;81.25;52.65;;;15.50;99.90;;;;;;5063766;28;20037;-66
2024/01/26 07:53:17;;;;;;;100.30;61.88;;;16.10;99.90;;;;;;5065076;28;20389;-67
2024/01/26 07:55:42;;;;;;;86.85;54.25;;;15.60;99.90;;;;;;5048399;28;20044;-67
2024/01/26 07:58:08;;;;;;;89.03;58.28;;;14.90;99.90;;;;;;5064312;28;20127;-67
2024/01/26 08:00:34;;;;;;;97.07;55.90;;;15.50;99.90;;;;;;5046385;28;20040;-67
2024/01/26 08:02:59;;;;;;;85.78;55.33;;;15.40;99.90;;;;;;5047022;28;20036;-66
2024/01/26 08:05:25;;;;;;;82.38;57.92;;;15.60;99.90;;;;;;5046524;28;20044;-67
2024/01/26 08:07:51;;;;;;;87.78;57.42;;;14.10;99.90;;;;;;5064200;28;20039;-69
2024/01/26 08:10:16;;;;;;;96.05;56.88;;;14.90;99.90;;;;;;5046665;28;20051;-68
2024/01/26 08:12:42;;;;;;;92.80;58.30;;;16.20;99.90;;;;;;5064225;28;20044;-69
2024/01/26 08:15:08;;;;;;;88.13;56.72;;;14.40;99.90;;;;;;5029526;28;20040;-68
2024/01/26 08:17:34;;;;;;;101.70;57.55;;;14.90;99.90;;;;;;5065898;28;20051;-68
2024/01/26 08:20:01;;;;;;;98.78;57.75;;;15.30;99.90;;;;;;5045006;28;20056;-68
2024/01/26 08:22:26;;;;;;;102.82;58.72;;;15.80;99.90;;;;;;5043191;28;20037;-69
2024/01/26 08:24:52;;;;;;;98.75;57.80;;;15.70;99.90;;;;;;5042494;28;20047;-69
2024/01/26 08:27:18;;;;;;;96.10;56.40;;;15.40;99.90;;;;;;5044529;28;20046;-68
2024/01/26 08:29:44;;;;;;;105.95;60.40;;;15.00;99.90;;;;;;5045970;28;20048;-69
2024/01/26 08:32:09;;;;;;;80.78;58.53;;;14.00;99.90;;;;;;5046925;28;20086;-69
2024/01/26 08:34:36;;;;;;;84.55;63.55;;;15.00;99.90;;;;;;5045301;28;20120;-69
2024/01/26 08:37:03;;;;;;;91.07;63.85;;;14.50;99.90;;;;;;5045062;28;20059;-69
2024/01/26 08:39:29;;;;;;;92.53;62.40;;;16.00;99.90;;;;;;5044021;28;20032;-69
2024/01/26 08:41:55;;;;;;;92.75;61.90;;;15.90;99.90;;;;;;5045317;28;20032;-69
2024/01/26 08:44:21;;;;;;;93.28;58.67;;;14.40;99.90;;;;;;5044635;28;20036;-69
2024/01/26 08:46:47;;;;;;;88.13;60.95;;;15.80;99.90;;;;;;5064036;28;20174;-69
2024/01/26 08:49:12;;;;;;;82.50;64.18;;;15.30;99.90;;;;;;5046336;28;20048;-68
2024/01/26 08:51:38;;;;;;;85.68;58.03;;;15.00;99.90;;;;;;5030563;28;20036;-69
2024/01/26 08:54:04;;;;;;;88.18;62.15;;;15.00;99.90;;;;;;5045251;28;20041;-69
2024/01/26 08:56:30;;;;;;;90.57;57.35;;;14.40;99.90;;;;;;5043230;28;20036;-68
2024/01/26 08:58:55;;;;;;;90.10;56.47;;;15.70;99.90;;;;;;5043595;28;20599;-68
2024/01/26 09:01:24;;;;;;;81.20;57.67;;;15.70;99.90;;;;;;5043678;28;20043;-68
2024/01/26 09:03:50;;;;;;;82.47;55.05;;;14.00;99.90;;;;;;5047011;28;20253;-68
2024/01/26 09:06:16;;;;;;;86.38;52.78;;;14.10;99.90;;;;;;5048838;28;20052;-69
2024/01/26 09:08:41;;;;;;;74.65;53.80;;;14.40;99.90;;;;;;5046984;28;20052;-68
2024/01/26 09:11:07;;;;;;;72.95;49.72;;;14.60;99.90;;;;;;5048549;28;20075;-68
2024/01/26 09:13:33;;;;;;;78.60;53.38;;;15.40;99.90;;;;;;5070352;28;20075;-68
2024/01/26 09:15:58;;;;;;;69.65;48.83;;;14.20;99.90;;;;;;5047123;28;20040;-67
2024/01/26 09:18:24;;;;;;;66.80;47.28;;;14.80;99.90;;;;;;5072338;28;20036;-66
2024/01/26 09:20:50;;;;;;;68.75;48.03;;;15.50;99.90;;;;;;5068143;28;20072;-66
2024/01/26 09:23:18;;;;;;;71.10;46.38;;;14.60;1.00;;;;;;5065311;28;20044;-63
2024/01/26 09:25:45;;;;;;;82.70;50.03;;;15.50;93.20;;;;;;5067585;28;20083;-63
2024/01/26 09:28:11;;;;;;;78.00;49.78;;;14.60;99.90;;;;;;5071577;28;20091;-63
2024/01/26 09:30:37;;;;;;;83.97;54.35;;;15.50;99.90;;;;;;5067555;28;20060;-66
2024/01/26 09:33:03;;;;;;;79.68;50.10;;;15.20;1.00;;;;;;5064679;28;20451;-66
2024/01/26 09:35:28;;;;;;;91.50;56.42;;;14.50;99.90;;;;;;5067363;28;20427;-66
2024/01/26 09:37:54;;;;;;;86.47;55.08;;;15.10;99.90;;;;;;5067023;28;20067;-67
2024/01/26 09:40:23;;;;;;;84.63;50.05;;;15.30;99.90;;;;;;5067117;28;20072;-66
2024/01/26 09:42:49;;;;;;;84.18;55.60;;;14.50;1.00;;;;;;5068487;28;20107;-66
2024/01/26 09:45:16;;;;;;;81.20;51.72;;;14.50;1.00;;;;;;5048364;28;20078;-67
2024/01/26 09:47:45;;;;;;;75.22;49.28;;;14.60;99.90;;;;;;5066919;28;20127;-66
2024/01/26 09:50:12;;;;;;;77.63;52.13;;;14.40;99.90;;;;;;5066870;28;20135;-66
2024/01/26 09:52:38;;;;;;;59.72;43.60;;;14.80;1.00;;;;;;5066837;28;20032;-66
2024/01/26 09:55:05;;;;;;;59.85;40.53;;;15.00;99.90;;;;;;5066918;28;20036;-66
2024/01/26 09:57:32;;;;;;;61.33;40.85;;;14.60;1.00;;;;;;5066671;28;20098;-67
2024/01/26 09:59:57;;;;;;;56.03;37.65;;;15.40;99.90;;;;;;5067363;28;20082;-66
2024/01/26 10:02:23;;;;;;;54.75;38.35;;;14.60;99.90;;;;;;5049444;28;20052;-66
2024/01/26 10:04:49;;;;;;;53.28;38.65;;;14.80;99.90;;;;;;5067522;28;20044;-66
2024/01/26 10:07:15;;;;;;;55.70;37.95;;;15.20;1.00;;;;;;5067144;28;20688;-66
2024/01/26 10:09:41;;;;;;;52.97;36.05;;;14.60;99.90;;;;;;5048494;28;20536;-66
2024/01/26 10:12:10;;;;;;;60.10;39.30;;;15.10;18.90;;;;;;5065376;28;20047;-68
2024/01/26 10:14:37;;;;;;;61.53;39.58;;;15.10;96.00;;;;;;5064996;28;20041;-67
2024/01/26 10:17:03;;;;;;;60.55;37.40;;;14.50;26.30;;;;;;5066054;28;20125;-68
2024/01/26 10:19:29;;;;;;;68.68;41.42;;;15.10;1.00;;;;;;5065527;28;20826;-69
2024/01/26 10:21:55;;;;;;;68.55;40.22;;;15.20;1.00;;;;;;5064769;28;20780;-69
2024/01/26 10:24:23;;;;;;;69.70;38.72;;;15.00;1.00;;;;;;5047267;28;20837;-68
2024/01/26 10:26:53;;;;;;;71.72;41.75;;;14.50;1.00;;;;;;5049142;28;20149;-69
2024/01/26 10:29:19;;;;;;;74.70;44.42;;;14.60;1.00;;;;;;5047194;28;20078;-68
2024/01/26 10:31:45;;;;;;;58.85;39.40;;;14.50;1.00;;;;;;5030699;28;20849;-68
2024/01/26 10:34:15;;;;;;;60.35;38.35;;;14.50;99.90;;;;;;5079756;28;20073;-71
2024/01/26 10:36:46;;;;;;;62.85;41.08;;;14.80;99.90;;;;;;5046962;28;20541;-67
2024/01/26 10:39:22;;;;;;;60.83;38.20;;;15.00;78.20;;;;;;5064891;28;20052;-68
2024/01/26 10:41:50;;;;;;;70.55;40.97;;;15.00;1.00;;;;;;5045931;28;20040;-68
2024/01/26 10:44:16;;;;;;;69.53;39.70;;;14.50;1.00;;;;;;5045314;28;20414;-67
2024/01/26 10:46:42;;;;;;;61.65;35.67;;;14.80;1.00;;;;;;5063539;28;20132;-67
2024/01/26 10:49:09;;;;;;;64.97;37.75;;;15.00;1.00;;;;;;5063941;28;20074;-69
2024/01/26 10:51:40;;;;;;;68.72;38.47;;;15.40;99.90;;;;;;5063745;28;20036;-70
2024/01/26 10:54:09;;;;;;;68.28;40.22;;;14.70;1.00;;;;;;5046405;28;20064;-69
2024/01/26 10:56:35;;;;;;;62.63;36.75;;;14.50;1.00;;;;;;5046477;28;20098;-70
2024/01/26 10:59:01;;;;;;;80.45;39.35;;;14.90;99.90;;;;;;5046126;28;20036;-69
2024/01/26 11:01:28;;;;;;;67.22;38.28;;;14.60;99.90;;;;;;5045893;28;20601;-68
2024/01/26 11:03:58;;;;;;;39.58;30.00;;;14.80;99.90;;;;;;5029412;28;20573;-67
2024/01/26 11:06:26;;;;;;;40.92;29.25;;;14.60;99.90;;;;;;5046145;28;20053;-71
2024/01/26 11:09:00;;;;;;;60.72;35.92;;;14.40;99.90;;;;;;5045546;28;20084;-68
2024/01/26 11:11:33;;;;;;;59.50;36.25;;;14.80;99.90;;;;;;5045127;28;20097;-68
2024/01/26 11:14:02;;;;;;;68.97;37.65;;;14.50;99.90;;;;;;5045868;28;20036;-67
2024/01/26 11:16:38;;;;;;;57.17;37.17;;;15.40;99.90;;;;;;5064029;28;20047;-68
2024/01/26 11:19:03;;;;;;;72.05;38.70;;;14.90;99.90;;;;;;5045039;28;20052;-68
2024/01/26 11:21:44;;;;;;;75.97;37.50;;;14.80;99.90;;;;;;5045121;28;20103;-65
2024/01/26 11:24:15;;;;;;;62.40;37.50;;;14.20;99.90;;;;;;5045862;28;20241;-65
2024/01/26 11:26:53;;;;;;;63.75;36.38;;;14.80;99.90;;;;;;5066813;28;20056;-64
2024/01/26 11:29:19;;;;;;;71.53;37.08;;;14.80;99.90;;;;;;5046543;28;20071;-65
2024/01/26 11:31:45;;;;;;;68.50;37.08;;;14.20;99.90;;;;;;5063756;28;20098;-64
2024/01/26 11:34:18;;;;;;;51.58;34.40;;;14.60;99.90;;;;;;5064601;28;20398;-64
2024/01/26 11:36:44;;;;;;;56.58;36.03;;;14.30;99.90;;;;;;5064264;28;20570;-64
2024/01/26 11:39:13;;;;;;;56.92;33.90;;;14.20;99.90;;;;;;5067511;28;20044;-64
2024/01/26 11:41:46;;;;;;;57.47;34.25;;;14.40;95.60;;;;;;5065235;28;20046;-64
2024/01/26 11:44:19;;;;;;;47.95;32.40;;;15.40;54.40;;;;;;5064630;28;20389;-64
2024/01/26 11:46:44;;;;;;;51.38;31.70;;;14.60;13.90;;;;;;5064122;28;20555;-64
2024/01/26 11:49:10;;;;;;;57.58;33.47;;;14.40;88.20;;;;;;5064532;28;20072;-64
2024/01/26 11:51:36;;;;;;;51.33;32.45;;;15.10;99.90;;;;;;5064779;28;20359;-64
2024/01/26 11:54:01;;;;;;;57.28;36.33;;;14.20;99.90;;;;;;5065208;28;20043;-64
2024/01/26 11:56:27;;;;;;;46.20;32.33;;;14.10;41.00;;;;;;5062835;28;20037;-64
2024/01/26 11:58:53;;;;;;;60.83;35.53;;;14.50;93.50;;;;;;5064252;28;20048;-64
2024/01/26 12:01:21;;;;;;;61.38;37.58;;;14.60;99.90;;;;;;5063211;28;20410;-64
2024/01/26 12:03:47;;;;;;;49.60;36.55;;;14.60;99.90;;;;;;5065150;28;20453;-64
2024/01/26 12:06:13;;;;;;;56.45;36.08;;;14.30;99.90;;;;;;5061954;28;20052;-64
2024/01/26 12:08:39;;;;;;;54.88;34.60;;;14.70;99.90;;;;;;5062697;28;20540;-64
2024/01/26 12:11:04;;;;;;;63.47;36.72;;;14.20;99.90;;;;;;5064495;28;20125;-64
2024/01/26 12:13:30;;;;;;;57.58;37.88;;;14.50;99.90;;;;;;5065932;28;20478;-64
2024/01/26 12:15:57;;;;;;;65.05;42.65;;;14.10;99.90;;;;;;5063529;28;20186;-64
2024/01/26 12:18:23;;;;;;;67.35;42.08;;;14.40;1.00;;;;;;5064101;28;20618;-64
2024/01/26 12:20:50;;;;;;;69.00;40.33;;;13.90;39.60;;;;;;5066079;28;20139;-64
2024/01/26 12:23:20;;;;;;;53.65;40.58;;;14.20;1.00;;;;;;5067006;28;20055;-67